sensor_id;sensor_type;location;lat;lon;timestamp;P1;durP1;ratioP1;P2;durP2;ratioP2
74415;SDS011;62850;42.428;25.618;2022-09-27T00:01:34;10.40;;;8.00;;
74415;SDS011;62850;42.428;25.618;2022-09-27T00:04:00;10.45;;;7.65;;
74415;SDS011;62850;42.428;25.618;2022-09-27T00:06:27;13.25;;;7.88;;
74415;SDS011;62850;42.428;25.618;2022-09-27T00:08:54;8.80;;;7.18;;
74415;SDS011;62850;42.428;25.618;2022-09-27T00:13:48;13.02;;;7.35;;
74415;SDS011;62850;42.428;25.618;2022-09-27T00:16:14;8.85;;;7.13;;
74415;SDS011;62850;42.428;25.618;2022-09-27T00:18:40;9.43;;;7.15;;
74415;SDS011;62850;42.428;25.618;2022-09-27T00:21:07;10.05;;;7.28;;
74415;SDS011;62850;42.428;25.618;2022-09-27T00:23:35;12.57;;;7.82;;
74415;SDS011;62850;42.428;25.618;2022-09-27T00:26:01;11.30;;;8.23;;
74415;SDS011;62850;42.428;25.618;2022-09-27T00:28:27;12.23;;;7.88;;
74415;SDS011;62850;42.428;25.618;2022-09-27T00:30:53;11.32;;;8.20;;
74415;SDS011;62850;42.428;25.618;2022-09-27T00:33:18;11.35;;;7.82;;
74415;SDS011;62850;42.428;25.618;2022-09-27T00:35:44;12.63;;;7.80;;
74415;SDS011;62850;42.428;25.618;2022-09-27T00:38:10;9.52;;;7.65;;
74415;SDS011;62850;42.428;25.618;2022-09-27T00:40:37;10.13;;;7.93;;
74415;SDS011;62850;42.428;25.618;2022-09-27T00:43:07;10.85;;;7.85;;
74415;SDS011;62850;42.428;25.618;2022-09-27T00:45:40;10.68;;;8.02;;
74415;SDS011;62850;42.428;25.618;2022-09-27T00:48:09;9.45;;;7.55;;
74415;SDS011;62850;42.428;25.618;2022-09-27T00:50:40;8.43;;;7.40;;
74415;SDS011;62850;42.428;25.618;2022-09-27T00:55:53;10.63;;;7.85;;
74415;SDS011;62850;42.428;25.618;2022-09-27T00:58:23;8.65;;;7.50;;
74415;SDS011;62850;42.428;25.618;2022-09-27T01:00:55;9.68;;;7.30;;
74415;SDS011;62850;42.428;25.618;2022-09-27T01:06:00;9.10;;;7.50;;
74415;SDS011;62850;42.428;25.618;2022-09-27T01:08:27;11.02;;;7.72;;
74415;SDS011;62850;42.428;25.618;2022-09-27T01:10:56;10.40;;;7.75;;
74415;SDS011;62850;42.428;25.618;2022-09-27T01:13:41;9.30;;;7.47;;
74415;SDS011;62850;42.428;25.618;2022-09-27T01:16:26;9.70;;;7.72;;
74415;SDS011;62850;42.428;25.618;2022-09-27T01:22:06;11.40;;;7.65;;
74415;SDS011;62850;42.428;25.618;2022-09-27T01:24:52;9.60;;;7.18;;
74415;SDS011;62850;42.428;25.618;2022-09-27T01:36:04;10.35;;;7.55;;
74415;SDS011;62850;42.428;25.618;2022-09-27T01:44:46;9.07;;;6.97;;
74415;SDS011;62850;42.428;25.618;2022-09-27T01:47:21;9.40;;;7.18;;
74415;SDS011;62850;42.428;25.618;2022-09-27T01:49:52;9.82;;;7.47;;
74415;SDS011;62850;42.428;25.618;2022-09-27T01:52:25;10.60;;;7.40;;
74415;SDS011;62850;42.428;25.618;2022-09-27T01:54:57;9.23;;;7.43;;
74415;SDS011;62850;42.428;25.618;2022-09-27T01:57:26;10.80;;;7.85;;
74415;SDS011;62850;42.428;25.618;2022-09-27T02:00:04;10.80;;;7.55;;
74415;SDS011;62850;42.428;25.618;2022-09-27T02:02:36;13.68;;;7.53;;
74415;SDS011;62850;42.428;25.618;2022-09-27T02:05:13;10.65;;;7.32;;
74415;SDS011;62850;42.428;25.618;2022-09-27T02:10:20;9.82;;;7.45;;
74415;SDS011;62850;42.428;25.618;2022-09-27T02:12:57;9.55;;;7.18;;
74415;SDS011;62850;42.428;25.618;2022-09-27T02:15:31;9.15;;;7.00;;
74415;SDS011;62850;42.428;25.618;2022-09-27T02:18:12;12.68;;;7.28;;
74415;SDS011;62850;42.428;25.618;2022-09-27T02:20:50;9.05;;;6.85;;
74415;SDS011;62850;42.428;25.618;2022-09-27T02:26:03;9.65;;;6.85;;
74415;SDS011;62850;42.428;25.618;2022-09-27T02:28:36;11.68;;;7.13;;
74415;SDS011;62850;42.428;25.618;2022-09-27T02:31:07;8.70;;;6.80;;
74415;SDS011;62850;42.428;25.618;2022-09-27T02:33:34;8.70;;;6.43;;
74415;SDS011;62850;42.428;25.618;2022-09-27T02:36:10;9.88;;;7.05;;
74415;SDS011;62850;42.428;25.618;2022-09-27T02:38:36;9.13;;;6.72;;
74415;SDS011;62850;42.428;25.618;2022-09-27T02:41:02;7.93;;;5.93;;
74415;SDS011;62850;42.428;25.618;2022-09-27T02:43:28;8.50;;;6.38;;
74415;SDS011;62850;42.428;25.618;2022-09-27T03:00:02;8.43;;;6.25;;
74415;SDS011;62850;42.428;25.618;2022-09-27T03:05:48;8.88;;;6.45;;
74415;SDS011;62850;42.428;25.618;2022-09-27T03:08:17;8.52;;;5.55;;
74415;SDS011;62850;42.428;25.618;2022-09-27T03:10:43;9.07;;;6.68;;
74415;SDS011;62850;42.428;25.618;2022-09-27T03:13:09;9.07;;;6.18;;
74415;SDS011;62850;42.428;25.618;2022-09-27T03:15:34;8.88;;;6.63;;
74415;SDS011;62850;42.428;25.618;2022-09-27T03:18:00;9.35;;;6.43;;
74415;SDS011;62850;42.428;25.618;2022-09-27T03:20:27;8.55;;;6.97;;
74415;SDS011;62850;42.428;25.618;2022-09-27T03:22:53;8.90;;;6.85;;
74415;SDS011;62850;42.428;25.618;2022-09-27T03:25:20;10.88;;;6.40;;
74415;SDS011;62850;42.428;25.618;2022-09-27T03:27:46;9.80;;;7.18;;
74415;SDS011;62850;42.428;25.618;2022-09-27T03:30:12;9.18;;;6.68;;
74415;SDS011;62850;42.428;25.618;2022-09-27T03:32:41;8.98;;;6.82;;
74415;SDS011;62850;42.428;25.618;2022-09-27T03:35:07;11.10;;;7.18;;
74415;SDS011;62850;42.428;25.618;2022-09-27T03:37:33;8.68;;;6.60;;
74415;SDS011;62850;42.428;25.618;2022-09-27T03:39:58;9.55;;;6.90;;
74415;SDS011;62850;42.428;25.618;2022-09-27T03:42:24;9.30;;;6.38;;
74415;SDS011;62850;42.428;25.618;2022-09-27T03:44:49;9.45;;;6.85;;
74415;SDS011;62850;42.428;25.618;2022-09-27T03:47:15;8.18;;;6.50;;
74415;SDS011;62850;42.428;25.618;2022-09-27T03:49:41;9.38;;;6.65;;
74415;SDS011;62850;42.428;25.618;2022-09-27T03:52:06;8.63;;;6.45;;
74415;SDS011;62850;42.428;25.618;2022-09-27T03:54:32;9.35;;;6.22;;
74415;SDS011;62850;42.428;25.618;2022-09-27T03:56:57;9.65;;;6.55;;
74415;SDS011;62850;42.428;25.618;2022-09-27T03:59:23;8.55;;;6.05;;
74415;SDS011;62850;42.428;25.618;2022-09-27T04:01:48;9.77;;;6.10;;
74415;SDS011;62850;42.428;25.618;2022-09-27T04:04:14;10.30;;;6.40;;
74415;SDS011;62850;42.428;25.618;2022-09-27T04:06:39;10.20;;;6.72;;
74415;SDS011;62850;42.428;25.618;2022-09-27T04:09:05;10.38;;;6.65;;
74415;SDS011;62850;42.428;25.618;2022-09-27T04:11:31;9.40;;;6.90;;
74415;SDS011;62850;42.428;25.618;2022-09-27T04:13:56;11.75;;;6.68;;
74415;SDS011;62850;42.428;25.618;2022-09-27T04:16:22;9.90;;;6.85;;
74415;SDS011;62850;42.428;25.618;2022-09-27T04:18:49;12.07;;;7.20;;
74415;SDS011;62850;42.428;25.618;2022-09-27T04:21:14;10.05;;;7.28;;
74415;SDS011;62850;42.428;25.618;2022-09-27T04:23:40;11.13;;;6.55;;
74415;SDS011;62850;42.428;25.618;2022-09-27T04:26:06;12.50;;;7.68;;
74415;SDS011;62850;42.428;25.618;2022-09-27T04:28:31;9.40;;;6.95;;
74415;SDS011;62850;42.428;25.618;2022-09-27T04:30:57;11.60;;;6.32;;
74415;SDS011;62850;42.428;25.618;2022-09-27T04:33:23;11.38;;;7.57;;
74415;SDS011;62850;42.428;25.618;2022-09-27T04:35:49;10.20;;;6.93;;
74415;SDS011;62850;42.428;25.618;2022-09-27T04:38:33;9.73;;;6.80;;
74415;SDS011;62850;42.428;25.618;2022-09-27T04:40:59;10.38;;;6.78;;
74415;SDS011;62850;42.428;25.618;2022-09-27T04:43:26;8.43;;;6.18;;
74415;SDS011;62850;42.428;25.618;2022-09-27T04:45:52;9.93;;;6.50;;
74415;SDS011;62850;42.428;25.618;2022-09-27T04:48:17;8.48;;;6.78;;
74415;SDS011;62850;42.428;25.618;2022-09-27T04:50:43;9.63;;;6.32;;
74415;SDS011;62850;42.428;25.618;2022-09-27T04:53:17;9.38;;;6.93;;
74415;SDS011;62850;42.428;25.618;2022-09-27T04:55:46;9.27;;;6.57;;
74415;SDS011;62850;42.428;25.618;2022-09-27T04:58:12;10.00;;;6.50;;
74415;SDS011;62850;42.428;25.618;2022-09-27T05:00:38;8.57;;;6.30;;
74415;SDS011;62850;42.428;25.618;2022-09-27T05:03:05;9.52;;;6.28;;
74415;SDS011;62850;42.428;25.618;2022-09-27T05:05:31;8.07;;;5.13;;
74415;SDS011;62850;42.428;25.618;2022-09-27T05:07:56;10.27;;;6.38;;
74415;SDS011;62850;42.428;25.618;2022-09-27T05:10:22;7.93;;;6.20;;
74415;SDS011;62850;42.428;25.618;2022-09-27T05:12:47;7.78;;;5.78;;
74415;SDS011;62850;42.428;25.618;2022-09-27T05:15:13;9.07;;;6.20;;
74415;SDS011;62850;42.428;25.618;2022-09-27T05:17:38;8.15;;;6.32;;
74415;SDS011;62850;42.428;25.618;2022-09-27T05:20:04;9.43;;;6.35;;
74415;SDS011;62850;42.428;25.618;2022-09-27T05:22:30;11.13;;;6.93;;
74415;SDS011;62850;42.428;25.618;2022-09-27T05:24:55;9.90;;;6.10;;
74415;SDS011;62850;42.428;25.618;2022-09-27T05:27:21;11.38;;;6.35;;
74415;SDS011;62850;42.428;25.618;2022-09-27T05:29:46;8.38;;;5.85;;
74415;SDS011;62850;42.428;25.618;2022-09-27T05:32:13;8.00;;;5.60;;
74415;SDS011;62850;42.428;25.618;2022-09-27T05:34:39;8.60;;;5.88;;
74415;SDS011;62850;42.428;25.618;2022-09-27T05:37:05;9.48;;;6.70;;
74415;SDS011;62850;42.428;25.618;2022-09-27T05:39:31;9.38;;;6.07;;
74415;SDS011;62850;42.428;25.618;2022-09-27T05:41:57;8.73;;;5.93;;
74415;SDS011;62850;42.428;25.618;2022-09-27T05:44:22;9.82;;;5.85;;
74415;SDS011;62850;42.428;25.618;2022-09-27T05:46:50;10.25;;;6.15;;
74415;SDS011;62850;42.428;25.618;2022-09-27T05:49:15;9.63;;;5.97;;
74415;SDS011;62850;42.428;25.618;2022-09-27T05:51:41;11.50;;;6.00;;
74415;SDS011;62850;42.428;25.618;2022-09-27T05:54:07;10.48;;;6.50;;
74415;SDS011;62850;42.428;25.618;2022-09-27T05:56:32;8.63;;;6.22;;
74415;SDS011;62850;42.428;25.618;2022-09-27T05:58:58;8.90;;;5.88;;
74415;SDS011;62850;42.428;25.618;2022-09-27T06:01:24;10.80;;;6.50;;
74415;SDS011;62850;42.428;25.618;2022-09-27T06:03:50;11.73;;;7.05;;
74415;SDS011;62850;42.428;25.618;2022-09-27T06:06:17;8.63;;;6.63;;
74415;SDS011;62850;42.428;25.618;2022-09-27T06:08:42;10.68;;;6.43;;
74415;SDS011;62850;42.428;25.618;2022-09-27T06:11:10;12.13;;;6.65;;
74415;SDS011;62850;42.428;25.618;2022-09-27T06:13:36;13.70;;;6.55;;
74415;SDS011;62850;42.428;25.618;2022-09-27T06:16:03;12.15;;;5.95;;
74415;SDS011;62850;42.428;25.618;2022-09-27T06:18:29;10.57;;;6.38;;
74415;SDS011;62850;42.428;25.618;2022-09-27T06:20:57;12.15;;;6.68;;
74415;SDS011;62850;42.428;25.618;2022-09-27T06:23:23;12.38;;;6.88;;
74415;SDS011;62850;42.428;25.618;2022-09-27T06:25:50;12.10;;;6.38;;
74415;SDS011;62850;42.428;25.618;2022-09-27T06:28:16;11.02;;;6.13;;
74415;SDS011;62850;42.428;25.618;2022-09-27T06:30:46;10.32;;;6.10;;
74415;SDS011;62850;42.428;25.618;2022-09-27T06:33:16;9.50;;;5.85;;
74415;SDS011;62850;42.428;25.618;2022-09-27T06:35:43;8.82;;;5.95;;
74415;SDS011;62850;42.428;25.618;2022-09-27T06:38:13;11.50;;;5.95;;
74415;SDS011;62850;42.428;25.618;2022-09-27T06:43:10;9.18;;;5.72;;
74415;SDS011;62850;42.428;25.618;2022-09-27T06:45:37;10.32;;;5.97;;
74415;SDS011;62850;42.428;25.618;2022-09-27T06:48:03;10.80;;;5.97;;
74415;SDS011;62850;42.428;25.618;2022-09-27T06:50:31;11.55;;;6.20;;
74415;SDS011;62850;42.428;25.618;2022-09-27T06:52:58;18.52;;;6.50;;
74415;SDS011;62850;42.428;25.618;2022-09-27T06:55:24;10.75;;;6.40;;
74415;SDS011;62850;42.428;25.618;2022-09-27T06:57:56;13.18;;;7.20;;
74415;SDS011;62850;42.428;25.618;2022-09-27T07:00:42;11.73;;;7.38;;
74415;SDS011;62850;42.428;25.618;2022-09-27T07:03:08;17.65;;;6.97;;
74415;SDS011;62850;42.428;25.618;2022-09-27T07:05:35;12.07;;;7.38;;
74415;SDS011;62850;42.428;25.618;2022-09-27T07:08:02;12.32;;;6.93;;
74415;SDS011;62850;42.428;25.618;2022-09-27T07:10:28;12.90;;;6.88;;
74415;SDS011;62850;42.428;25.618;2022-09-27T07:13:02;13.13;;;6.90;;
74415;SDS011;62850;42.428;25.618;2022-09-27T07:15:35;10.13;;;6.25;;
74415;SDS011;62850;42.428;25.618;2022-09-27T07:18:02;10.15;;;6.32;;
74415;SDS011;62850;42.428;25.618;2022-09-27T07:20:29;8.85;;;5.85;;
74415;SDS011;62850;42.428;25.618;2022-09-27T07:22:56;9.73;;;5.97;;
74415;SDS011;62850;42.428;25.618;2022-09-27T07:25:22;9.48;;;6.43;;
74415;SDS011;62850;42.428;25.618;2022-09-27T07:27:48;9.27;;;5.90;;
74415;SDS011;62850;42.428;25.618;2022-09-27T07:30:14;12.15;;;6.38;;
74415;SDS011;62850;42.428;25.618;2022-09-27T07:32:41;11.38;;;6.25;;
74415;SDS011;62850;42.428;25.618;2022-09-27T07:35:07;10.35;;;6.63;;
74415;SDS011;62850;42.428;25.618;2022-09-27T07:37:34;11.40;;;6.35;;
74415;SDS011;62850;42.428;25.618;2022-09-27T07:40:02;10.20;;;6.50;;
74415;SDS011;62850;42.428;25.618;2022-09-27T07:42:31;9.25;;;5.55;;
74415;SDS011;62850;42.428;25.618;2022-09-27T07:44:57;15.98;;;7.18;;
74415;SDS011;62850;42.428;25.618;2022-09-27T07:47:24;11.55;;;5.90;;
74415;SDS011;62850;42.428;25.618;2022-09-27T07:49:50;11.27;;;6.80;;
74415;SDS011;62850;42.428;25.618;2022-09-27T07:52:20;13.95;;;6.60;;
74415;SDS011;62850;42.428;25.618;2022-09-27T07:54:46;9.68;;;6.25;;
74415;SDS011;62850;42.428;25.618;2022-09-27T07:57:13;8.85;;;5.80;;
74415;SDS011;62850;42.428;25.618;2022-09-27T07:59:39;11.23;;;5.78;;
74415;SDS011;62850;42.428;25.618;2022-09-27T08:02:05;10.88;;;6.15;;
74415;SDS011;62850;42.428;25.618;2022-09-27T08:04:37;8.23;;;6.03;;
74415;SDS011;62850;42.428;25.618;2022-09-27T08:07:02;11.27;;;5.53;;
74415;SDS011;62850;42.428;25.618;2022-09-27T08:09:28;10.55;;;6.13;;
74415;SDS011;62850;42.428;25.618;2022-09-27T08:11:55;12.27;;;5.82;;
74415;SDS011;62850;42.428;25.618;2022-09-27T08:14:22;10.05;;;5.53;;
74415;SDS011;62850;42.428;25.618;2022-09-27T08:16:48;10.68;;;6.05;;
74415;SDS011;62850;42.428;25.618;2022-09-27T08:19:15;11.07;;;5.75;;
74415;SDS011;62850;42.428;25.618;2022-09-27T08:21:41;10.30;;;6.07;;
74415;SDS011;62850;42.428;25.618;2022-09-27T08:24:07;9.27;;;5.43;;
74415;SDS011;62850;42.428;25.618;2022-09-27T08:26:32;8.75;;;5.63;;
74415;SDS011;62850;42.428;25.618;2022-09-27T08:28:58;9.35;;;5.53;;
74415;SDS011;62850;42.428;25.618;2022-09-27T08:31:24;6.68;;;5.00;;
74415;SDS011;62850;42.428;25.618;2022-09-27T08:33:50;9.13;;;5.90;;
74415;SDS011;62850;42.428;25.618;2022-09-27T08:36:16;10.07;;;5.72;;
74415;SDS011;62850;42.428;25.618;2022-09-27T08:38:42;9.40;;;5.32;;
74415;SDS011;62850;42.428;25.618;2022-09-27T08:49:38;11.40;;;5.97;;
74415;SDS011;62850;42.428;25.618;2022-09-27T08:52:12;9.68;;;5.85;;
74415;SDS011;62850;42.428;25.618;2022-09-27T08:54:44;17.17;;;10.25;;
74415;SDS011;62850;42.428;25.618;2022-09-27T08:57:11;11.55;;;6.07;;
74415;SDS011;62850;42.428;25.618;2022-09-27T08:59:42;10.23;;;5.80;;
74415;SDS011;62850;42.428;25.618;2022-09-27T09:02:30;10.05;;;6.30;;
74415;SDS011;62850;42.428;25.618;2022-09-27T09:04:57;10.68;;;5.80;;
74415;SDS011;62850;42.428;25.618;2022-09-27T09:16:11;10.23;;;5.53;;
74415;SDS011;62850;42.428;25.618;2022-09-27T09:24:43;9.32;;;5.57;;
74415;SDS011;62850;42.428;25.618;2022-09-27T09:27:39;8.50;;;5.22;;
74415;SDS011;62850;42.428;25.618;2022-09-27T09:30:18;9.77;;;5.35;;
74415;SDS011;62850;42.428;25.618;2022-09-27T09:35:27;12.02;;;5.35;;
74415;SDS011;62850;42.428;25.618;2022-09-27T09:38:26;9.07;;;5.28;;
74415;SDS011;62850;42.428;25.618;2022-09-27T09:41:17;11.80;;;5.35;;
74415;SDS011;62850;42.428;25.618;2022-09-27T09:46:45;11.55;;;5.30;;
74415;SDS011;62850;42.428;25.618;2022-09-27T09:49:38;9.68;;;5.57;;
74415;SDS011;62850;42.428;25.618;2022-09-27T09:52:11;9.27;;;5.15;;
74415;SDS011;62850;42.428;25.618;2022-09-27T09:54:41;8.38;;;4.72;;
74415;SDS011;62850;42.428;25.618;2022-09-27T09:57:15;9.73;;;5.40;;
74415;SDS011;62850;42.428;25.618;2022-09-27T09:59:58;10.93;;;5.15;;
74415;SDS011;62850;42.428;25.618;2022-09-27T10:02:38;7.93;;;5.05;;
74415;SDS011;62850;42.428;25.618;2022-09-27T10:05:06;11.55;;;5.00;;
74415;SDS011;62850;42.428;25.618;2022-09-27T10:07:38;9.77;;;4.93;;
74415;SDS011;62850;42.428;25.618;2022-09-27T10:10:04;8.07;;;4.90;;
74415;SDS011;62850;42.428;25.618;2022-09-27T10:12:31;25.88;;;8.73;;
74415;SDS011;62850;42.428;25.618;2022-09-27T10:14:58;14.50;;;6.20;;
74415;SDS011;62850;42.428;25.618;2022-09-27T10:17:32;20.90;;;8.13;;
74415;SDS011;62850;42.428;25.618;2022-09-27T10:20:03;15.55;;;6.03;;
74415;SDS011;62850;42.428;25.618;2022-09-27T10:22:38;17.67;;;7.57;;
74415;SDS011;62850;42.428;25.618;2022-09-27T10:25:07;10.02;;;4.97;;
74415;SDS011;62850;42.428;25.618;2022-09-27T10:27:38;13.25;;;5.78;;
74415;SDS011;62850;42.428;25.618;2022-09-27T10:30:06;9.55;;;4.88;;
74415;SDS011;62850;42.428;25.618;2022-09-27T10:32:52;11.48;;;5.47;;
74415;SDS011;62850;42.428;25.618;2022-09-27T10:38:25;14.48;;;5.15;;
74415;SDS011;62850;42.428;25.618;2022-09-27T10:40:54;14.60;;;5.30;;
74415;SDS011;62850;42.428;25.618;2022-09-27T10:43:27;10.45;;;5.35;;
74415;SDS011;62850;42.428;25.618;2022-09-27T10:48:46;9.73;;;5.03;;
74415;SDS011;62850;42.428;25.618;2022-09-27T10:51:20;12.45;;;6.18;;
74415;SDS011;62850;42.428;25.618;2022-09-27T10:53:49;11.32;;;5.60;;
74415;SDS011;62850;42.428;25.618;2022-09-27T10:56:19;10.65;;;5.22;;
74415;SDS011;62850;42.428;25.618;2022-09-27T10:58:47;12.73;;;4.95;;
74415;SDS011;62850;42.428;25.618;2022-09-27T11:01:13;12.18;;;5.43;;
74415;SDS011;62850;42.428;25.618;2022-09-27T11:03:45;10.30;;;4.60;;
74415;SDS011;62850;42.428;25.618;2022-09-27T11:08:48;7.32;;;3.67;;
74415;SDS011;62850;42.428;25.618;2022-09-27T11:24:36;9.45;;;4.45;;
74415;SDS011;62850;42.428;25.618;2022-09-27T11:27:28;5.97;;;3.65;;
74415;SDS011;62850;42.428;25.618;2022-09-27T11:30:14;7.45;;;3.70;;
74415;SDS011;62850;42.428;25.618;2022-09-27T11:48:46;6.25;;;3.50;;
74415;SDS011;62850;42.428;25.618;2022-09-27T11:57:10;5.32;;;2.42;;
74415;SDS011;62850;42.428;25.618;2022-09-27T12:14:42;5.47;;;3.58;;
74415;SDS011;62850;42.428;25.618;2022-09-27T12:16:54;4.60;;;2.20;;
74415;SDS011;62850;42.428;25.618;2022-09-27T12:19:23;6.40;;;2.45;;
74415;SDS011;62850;42.428;25.618;2022-09-27T12:21:53;6.05;;;2.92;;
74415;SDS011;62850;42.428;25.618;2022-09-27T12:24:22;5.78;;;2.70;;
74415;SDS011;62850;42.428;25.618;2022-09-27T12:26:50;7.45;;;2.65;;
74415;SDS011;62850;42.428;25.618;2022-09-27T12:35:15;5.35;;;2.50;;
74415;SDS011;62850;42.428;25.618;2022-09-27T12:40:30;8.98;;;2.50;;
74415;SDS011;62850;42.428;25.618;2022-09-27T12:46:02;5.32;;;2.05;;
74415;SDS011;62850;42.428;25.618;2022-09-27T12:51:14;4.15;;;2.40;;
74415;SDS011;62850;42.428;25.618;2022-09-27T12:56:31;4.35;;;2.20;;
74415;SDS011;62850;42.428;25.618;2022-09-27T13:02:25;4.35;;;2.30;;
74415;SDS011;62850;42.428;25.618;2022-09-27T13:05:13;5.65;;;2.50;;
74415;SDS011;62850;42.428;25.618;2022-09-27T13:13:56;6.60;;;2.10;;
74415;SDS011;62850;42.428;25.618;2022-09-27T13:16:25;5.43;;;2.22;;
74415;SDS011;62850;42.428;25.618;2022-09-27T13:18:59;5.18;;;2.42;;
74415;SDS011;62850;42.428;25.618;2022-09-27T13:29:46;5.63;;;2.25;;
74415;SDS011;62850;42.428;25.618;2022-09-27T13:37:33;5.38;;;2.08;;
74415;SDS011;62850;42.428;25.618;2022-09-27T13:40:27;5.88;;;2.30;;
74415;SDS011;62850;42.428;25.618;2022-09-27T13:43:30;5.85;;;2.40;;
74415;SDS011;62850;42.428;25.618;2022-09-27T13:46:01;9.35;;;2.60;;
74415;SDS011;62850;42.428;25.618;2022-09-27T13:51:04;6.97;;;2.90;;
74415;SDS011;62850;42.428;25.618;2022-09-27T13:53:55;5.32;;;2.60;;
74415;SDS011;62850;42.428;25.618;2022-09-27T13:59:19;5.97;;;2.50;;
74415;SDS011;62850;42.428;25.618;2022-09-27T14:04:51;5.85;;;2.47;;
74415;SDS011;62850;42.428;25.618;2022-09-27T14:07:23;7.53;;;3.30;;
74415;SDS011;62850;42.428;25.618;2022-09-27T14:09:57;5.63;;;2.30;;
74415;SDS011;62850;42.428;25.618;2022-09-27T14:12:30;6.70;;;2.60;;
74415;SDS011;62850;42.428;25.618;2022-09-27T14:15:00;8.30;;;3.53;;
74415;SDS011;62850;42.428;25.618;2022-09-27T14:17:27;8.23;;;2.63;;
74415;SDS011;62850;42.428;25.618;2022-09-27T14:19:53;6.25;;;2.70;;
74415;SDS011;62850;42.428;25.618;2022-09-27T14:22:20;9.18;;;2.45;;
74415;SDS011;62850;42.428;25.618;2022-09-27T14:24:48;4.40;;;2.58;;
74415;SDS011;62850;42.428;25.618;2022-09-27T14:29:52;6.38;;;3.13;;
74415;SDS011;62850;42.428;25.618;2022-09-27T14:32:24;8.30;;;2.78;;
74415;SDS011;62850;42.428;25.618;2022-09-27T14:35:09;7.30;;;3.88;;
74415;SDS011;62850;42.428;25.618;2022-09-27T14:37:59;5.10;;;2.33;;
74415;SDS011;62850;42.428;25.618;2022-09-27T14:40:30;5.85;;;2.90;;
74415;SDS011;62850;42.428;25.618;2022-09-27T14:43:00;8.95;;;2.47;;
74415;SDS011;62850;42.428;25.618;2022-09-27T14:53:31;5.78;;;2.53;;
74415;SDS011;62850;42.428;25.618;2022-09-27T14:56:05;5.35;;;2.17;;
74415;SDS011;62850;42.428;25.618;2022-09-27T14:58:32;5.65;;;2.22;;
74415;SDS011;62850;42.428;25.618;2022-09-27T15:00:58;5.72;;;2.60;;
74415;SDS011;62850;42.428;25.618;2022-09-27T15:03:30;7.80;;;2.60;;
74415;SDS011;62850;42.428;25.618;2022-09-27T15:05:57;6.30;;;2.38;;
74415;SDS011;62850;42.428;25.618;2022-09-27T15:08:27;5.03;;;2.35;;
74415;SDS011;62850;42.428;25.618;2022-09-27T15:11:00;6.13;;;2.30;;
74415;SDS011;62850;42.428;25.618;2022-09-27T15:13:29;7.00;;;2.80;;
74415;SDS011;62850;42.428;25.618;2022-09-27T15:15:56;8.65;;;2.30;;
74415;SDS011;62850;42.428;25.618;2022-09-27T15:18:42;7.68;;;2.20;;
74415;SDS011;62850;42.428;25.618;2022-09-27T15:21:14;7.20;;;2.63;;
74415;SDS011;62850;42.428;25.618;2022-09-27T15:23:52;6.25;;;2.35;;
74415;SDS011;62850;42.428;25.618;2022-09-27T15:26:26;6.43;;;2.17;;
74415;SDS011;62850;42.428;25.618;2022-09-27T15:29:27;4.95;;;2.30;;
74415;SDS011;62850;42.428;25.618;2022-09-27T15:31:57;4.95;;;2.10;;
74415;SDS011;62850;42.428;25.618;2022-09-27T15:34:30;6.70;;;2.50;;
74415;SDS011;62850;42.428;25.618;2022-09-27T15:36:59;12.32;;;3.70;;
74415;SDS011;62850;42.428;25.618;2022-09-27T15:39:33;11.23;;;3.92;;
74415;SDS011;62850;42.428;25.618;2022-09-27T15:42:10;10.30;;;3.33;;
74415;SDS011;62850;42.428;25.618;2022-09-27T15:44:52;8.80;;;2.85;;
74415;SDS011;62850;42.428;25.618;2022-09-27T15:49:56;9.32;;;3.58;;
74415;SDS011;62850;42.428;25.618;2022-09-27T15:52:38;4.70;;;2.80;;
74415;SDS011;62850;42.428;25.618;2022-09-27T15:55:15;9.80;;;3.38;;
74415;SDS011;62850;42.428;25.618;2022-09-27T15:57:49;7.13;;;2.92;;
74415;SDS011;62850;42.428;25.618;2022-09-27T16:00:18;6.57;;;3.83;;
74415;SDS011;62850;42.428;25.618;2022-09-27T16:02:44;7.63;;;4.20;;
74415;SDS011;62850;42.428;25.618;2022-09-27T16:05:10;10.10;;;3.75;;
74415;SDS011;62850;42.428;25.618;2022-09-27T16:07:37;8.90;;;3.58;;
74415;SDS011;62850;42.428;25.618;2022-09-27T16:10:12;15.68;;;8.88;;
74415;SDS011;62850;42.428;25.618;2022-09-27T16:12:39;6.57;;;3.47;;
74415;SDS011;62850;42.428;25.618;2022-09-27T16:15:06;9.25;;;4.20;;
74415;SDS011;62850;42.428;25.618;2022-09-27T16:17:32;10.90;;;4.40;;
74415;SDS011;62850;42.428;25.618;2022-09-27T16:19:57;7.35;;;3.33;;
74415;SDS011;62850;42.428;25.618;2022-09-27T16:22:23;9.07;;;3.30;;
74415;SDS011;62850;42.428;25.618;2022-09-27T16:24:48;7.55;;;3.42;;
74415;SDS011;62850;42.428;25.618;2022-09-27T16:27:24;6.65;;;3.35;;
74415;SDS011;62850;42.428;25.618;2022-09-27T16:29:51;7.95;;;5.00;;
74415;SDS011;62850;42.428;25.618;2022-09-27T16:34:47;7.95;;;3.70;;
74415;SDS011;62850;42.428;25.618;2022-09-27T16:37:12;8.05;;;3.97;;
74415;SDS011;62850;42.428;25.618;2022-09-27T16:39:38;6.13;;;3.20;;
74415;SDS011;62850;42.428;25.618;2022-09-27T16:42:04;10.60;;;4.32;;
74415;SDS011;62850;42.428;25.618;2022-09-27T16:44:31;8.43;;;3.67;;
74415;SDS011;62850;42.428;25.618;2022-09-27T16:47:03;5.97;;;3.40;;
74415;SDS011;62850;42.428;25.618;2022-09-27T16:49:30;7.38;;;4.07;;
74415;SDS011;62850;42.428;25.618;2022-09-27T16:52:14;7.53;;;4.57;;
74415;SDS011;62850;42.428;25.618;2022-09-27T16:54:40;7.82;;;4.45;;
74415;SDS011;62850;42.428;25.618;2022-09-27T16:57:06;6.90;;;4.22;;
74415;SDS011;62850;42.428;25.618;2022-09-27T16:59:32;9.88;;;5.30;;
74415;SDS011;62850;42.428;25.618;2022-09-27T17:01:57;8.30;;;4.88;;
74415;SDS011;62850;42.428;25.618;2022-09-27T17:04:23;10.30;;;5.03;;
74415;SDS011;62850;42.428;25.618;2022-09-27T17:06:50;9.43;;;4.82;;
74415;SDS011;62850;42.428;25.618;2022-09-27T17:09:16;8.52;;;4.78;;
74415;SDS011;62850;42.428;25.618;2022-09-27T17:11:41;8.30;;;4.80;;
74415;SDS011;62850;42.428;25.618;2022-09-27T17:14:09;8.13;;;4.47;;
74415;SDS011;62850;42.428;25.618;2022-09-27T17:16:36;6.47;;;4.25;;
74415;SDS011;62850;42.428;25.618;2022-09-27T17:19:02;7.32;;;4.20;;
74415;SDS011;62850;42.428;25.618;2022-09-27T17:21:27;11.20;;;4.78;;
74415;SDS011;62850;42.428;25.618;2022-09-27T17:23:53;8.75;;;4.75;;
74415;SDS011;62850;42.428;25.618;2022-09-27T17:26:19;9.52;;;5.15;;
74415;SDS011;62850;42.428;25.618;2022-09-27T17:28:46;9.75;;;5.45;;
74415;SDS011;62850;42.428;25.618;2022-09-27T17:31:13;9.07;;;5.20;;
74415;SDS011;62850;42.428;25.618;2022-09-27T17:33:45;6.60;;;4.25;;
74415;SDS011;62850;42.428;25.618;2022-09-27T17:36:13;8.00;;;4.50;;
74415;SDS011;62850;42.428;25.618;2022-09-27T17:38:41;9.68;;;5.45;;
74415;SDS011;62850;42.428;25.618;2022-09-27T17:41:08;8.73;;;5.35;;
74415;SDS011;62850;42.428;25.618;2022-09-27T17:43:39;8.18;;;4.97;;
74415;SDS011;62850;42.428;25.618;2022-09-27T17:46:15;8.85;;;5.40;;
74415;SDS011;62850;42.428;25.618;2022-09-27T17:48:42;8.77;;;4.80;;
74415;SDS011;62850;42.428;25.618;2022-09-27T17:51:26;8.40;;;4.93;;
74415;SDS011;62850;42.428;25.618;2022-09-27T17:53:51;7.25;;;4.63;;
74415;SDS011;62850;42.428;25.618;2022-09-27T17:56:17;10.30;;;5.40;;
74415;SDS011;62850;42.428;25.618;2022-09-27T17:58:50;7.13;;;4.43;;
74415;SDS011;62850;42.428;25.618;2022-09-27T18:01:18;9.70;;;5.30;;
74415;SDS011;62850;42.428;25.618;2022-09-27T18:03:46;10.27;;;4.82;;
74415;SDS011;62850;42.428;25.618;2022-09-27T18:06:12;8.93;;;5.07;;